Toyo Maru — JI3710 — position and weather

sailwx.info

Track history (hours):
 
Tides and Currents Weather Stations Pressure Air Temp Water Temp Dewpoint Dewpoint Depression Visibility Wind Speed Wind Dir Waves Ship Positions

Toyo Maru

Last reported at 2016-Feb-25 10:27 UTC. Time now 2016-May-03 01:12 UTC.
Position N 35°06' E 139°41'.
Warning: this ship's position is months out of date.

Length 125 m; draft 6 m.

Type: Cargo ship. MMSI: 431401953.

Date/timePositionNaut miles runAvg speedWind from/ knotsBaromVisibWave heightAir tempDewpointWater temp
2016-Feb-25 10:27N 35°06' E 139°41'1213.2
2016-Feb-25 09:33N 35°18' E 139°44'1413.5
2016-Feb-25 08:33N 35°30' E 139°52'1312.8
2016-Feb-25 07:33N 35°36' E 140°06'0 0.0
2016-Feb-25 06:26N 35°36' E 140°06'0 0.0
2016-Feb-25 05:32N 35°36' E 140°06'1 1.3
2016-Feb-25 04:34N 35°37' E 140°05'0 0.0
2016-Feb-25 03:26N 35°37' E 140°05'0 0.0
2016-Feb-25 02:32N 35°37' E 140°05'0 0.0
2016-Feb-25 01:26N 35°37' E 140°05'0 0.0
2016-Feb-25 00:32N 35°37' E 140°05'0 0.0
2016-Feb-24 23:32N 35°37' E 140°05'0 0.0
2016-Feb-24 22:32N 35°37' E 140°05'5 5.5
2016-Feb-24 21:33N 35°34' E 139°60'1515.4
2016-Feb-24 20:33N 35°23' E 139°46'1211.9
2016-Feb-24 19:33N 35°11' E 139°47'255 9.7
2016-Feb-23 17:12N 34°04' E 134°48'  
2016-Feb-21 05:29N 35°07' E 139°42'1212.9
2016-Feb-21 04:33N 35°19' E 139°44'1514.5
2016-Feb-21 03:33N 35°31' E 139°54'8 6.9
2016-Feb-21 02:22N 35°35' E 140°02'0 0.0
2016-Feb-21 01:33N 35°35' E 140°02'0 0.0
2016-Feb-21 00:33N 35°35' E 140°02'0 0.0
2016-Feb-20 23:33N 35°35' E 140°02'0 0.0
2016-Feb-20 22:33N 35°35' E 140°02'0 0.0
2016-Feb-20 21:31N 35°35' E 140°02'0 0.0
2016-Feb-20 20:34N 35°35' E 140°02'0 0.0
2016-Feb-20 19:33N 35°35' E 140°02'0 0.1
2016-Feb-20 18:34N 35°35' E 140°02'0 0.0
2016-Feb-20 17:33N 35°35' E 140°02'0 0.0
2016-Feb-20 16:30N 35°35' E 140°02'0 0.0
2016-Feb-20 15:33N 35°35' E 140°02'0 0.0
2016-Feb-20 14:33N 35°35' E 140°02'0 0.0
2016-Feb-20 13:33N 35°35' E 140°02'0 0.1
2016-Feb-20 12:33N 35°35' E 140°02'0 0.0
2016-Feb-20 11:33N 35°35' E 140°02'0 0.0
2016-Feb-20 10:33N 35°35' E 140°02'0 0.0
2016-Feb-20 09:33N 35°35' E 140°02'0 0.0
2016-Feb-20 08:29N 35°35' E 140°02'3 3.1
2016-Feb-20 07:25N 35°36' E 140°06'0 0.0
2016-Feb-20 06:31N 35°36' E 140°06'0 0.0
2016-Feb-20 05:31N 35°36' E 140°06'1 1.0
2016-Feb-20 04:33N 35°36' E 140°05'1 1.1
2016-Feb-20 03:32N 35°37' E 140°05'0 0.0
2016-Feb-20 02:32N 35°37' E 140°05'0 0.0
2016-Feb-20 01:32N 35°37' E 140°05'0 0.0
2016-Feb-20 00:26N 35°37' E 140°05'0 0.0
2016-Feb-19 23:31N 35°37' E 140°05'0 0.0
2016-Feb-19 22:31N 35°37' E 140°05'1 1.0
2016-Feb-19 21:33N 35°36' E 140°05'1515.3
2016-Feb-19 20:33N 35°27' E 139°50'1111.3
2016-Feb-19 19:33N 35°16' E 139°46'256 9.8
2016-Feb-18 17:33N 34°04' E 134°48'  
2016-Feb-16 10:10N 35°07' E 139°43'914.9
2016-Feb-16 09:33N 35°15' E 139°46'1211.9
2016-Feb-16 08:33N 35°27' E 139°48'1616.3
2016-Feb-16 07:33N 35°36' E 140°05'1 1.0
2016-Feb-16 06:31N 35°36' E 140°06'0 0.0
2016-Feb-16 05:33N 35°36' E 140°06'1 1.3
2016-Feb-16 04:33N 35°37' E 140°05'0 0.0
2016-Feb-16 03:33N 35°37' E 140°05'0 0.0
2016-Feb-16 02:33N 35°37' E 140°05'0 0.0
2016-Feb-16 01:33N 35°37' E 140°05'0 0.0
2016-Feb-16 00:33N 35°37' E 140°05'0 0.0
2016-Feb-15 23:33N 35°37' E 140°05'0 0.0
2016-Feb-15 22:27N 35°37' E 140°05'0 0.0
2016-Feb-15 21:27N 35°37' E 140°05'0 0.0
2016-Feb-15 20:33N 35°37' E 140°05'0 0.0
2016-Feb-15 19:33N 35°37' E 140°05'0 0.0
2016-Feb-15 18:33N 35°37' E 140°05'0 0.0
2016-Feb-15 17:27N 35°37' E 140°05'0 0.0
2016-Feb-15 16:27N 35°37' E 140°05'0 0.0
2016-Feb-15 15:33N 35°37' E 140°05'0 0.0
2016-Feb-15 14:33N 35°37' E 140°05'0 0.0
2016-Feb-15 13:12N 35°37' E 140°05'1 1.8
2016-Feb-15 12:34N 35°36' E 140°05'1615.9
2016-Feb-15 11:33N 35°26' E 139°49'1211.6
2016-Feb-15 10:33N 35°15' E 139°47'  
Track history (hours):
 
Tides and Currents Weather Stations Pressure Air Temp Water Temp Dewpoint Dewpoint Depression Visibility Wind Speed Wind Dir Waves Ship Positions

Toyo Maru

Last reported at 2016-Feb-25 10:27 UTC. Time now 2016-May-03 01:12 UTC.
Position N 35°06' E 139°41'.
Warning: this ship's position is months out of date.

Length 125 m; draft 6 m.

Type: Cargo ship. MMSI: 431401953.

Date/timePositionNaut miles runAvg speedWind from/ knotsBaromVisibWave heightAir tempDewpointWater temp
2016-Feb-25 10:27N 35°06' E 139°41'1213.2
2016-Feb-25 09:33N 35°18' E 139°44'1413.5
2016-Feb-25 08:33N 35°30' E 139°52'1312.8
2016-Feb-25 07:33N 35°36' E 140°06'0 0.0
2016-Feb-25 06:26N 35°36' E 140°06'0 0.0
2016-Feb-25 05:32N 35°36' E 140°06'1 1.3
2016-Feb-25 04:34N 35°37' E 140°05'0 0.0
2016-Feb-25 03:26N 35°37' E 140°05'0 0.0
2016-Feb-25 02:32N 35°37' E 140°05'0 0.0
2016-Feb-25 01:26N 35°37' E 140°05'0 0.0
2016-Feb-25 00:32N 35°37' E 140°05'0 0.0
2016-Feb-24 23:32N 35°37' E 140°05'0 0.0
2016-Feb-24 22:32N 35°37' E 140°05'5 5.5
2016-Feb-24 21:33N 35°34' E 139°60'1515.4
2016-Feb-24 20:33N 35°23' E 139°46'1211.9
2016-Feb-24 19:33N 35°11' E 139°47'255 9.7
2016-Feb-23 17:12N 34°04' E 134°48'  
2016-Feb-21 05:29N 35°07' E 139°42'1212.9
2016-Feb-21 04:33N 35°19' E 139°44'1514.5
2016-Feb-21 03:33N 35°31' E 139°54'8 6.9
2016-Feb-21 02:22N 35°35' E 140°02'0 0.0
2016-Feb-21 01:33N 35°35' E 140°02'0 0.0
2016-Feb-21 00:33N 35°35' E 140°02'0 0.0
2016-Feb-20 23:33N 35°35' E 140°02'0 0.0
2016-Feb-20 22:33N 35°35' E 140°02'0 0.0
2016-Feb-20 21:31N 35°35' E 140°02'0 0.0
2016-Feb-20 20:34N 35°35' E 140°02'0 0.0
2016-Feb-20 19:33N 35°35' E 140°02'0 0.1
2016-Feb-20 18:34N 35°35' E 140°02'0 0.0
2016-Feb-20 17:33N 35°35' E 140°02'0 0.0
2016-Feb-20 16:30N 35°35' E 140°02'0 0.0
2016-Feb-20 15:33N 35°35' E 140°02'0 0.0
2016-Feb-20 14:33N 35°35' E 140°02'0 0.0
2016-Feb-20 13:33N 35°35' E 140°02'0 0.1
2016-Feb-20 12:33N 35°35' E 140°02'0 0.0
2016-Feb-20 11:33N 35°35' E 140°02'0 0.0
2016-Feb-20 10:33N 35°35' E 140°02'0 0.0
2016-Feb-20 09:33N 35°35' E 140°02'0 0.0
2016-Feb-20 08:29N 35°35' E 140°02'3 3.1
2016-Feb-20 07:25N 35°36' E 140°06'0 0.0
2016-Feb-20 06:31N 35°36' E 140°06'0 0.0
2016-Feb-20 05:31N 35°36' E 140°06'1 1.0
2016-Feb-20 04:33N 35°36' E 140°05'1 1.1
2016-Feb-20 03:32N 35°37' E 140°05'0 0.0
2016-Feb-20 02:32N 35°37' E 140°05'0 0.0
2016-Feb-20 01:32N 35°37' E 140°05'0 0.0
2016-Feb-20 00:26N 35°37' E 140°05'0 0.0
2016-Feb-19 23:31N 35°37' E 140°05'0 0.0
2016-Feb-19 22:31N 35°37' E 140°05'1 1.0
2016-Feb-19 21:33N 35°36' E 140°05'1515.3
2016-Feb-19 20:33N 35°27' E 139°50'1111.3
2016-Feb-19 19:33N 35°16' E 139°46'256 9.8
2016-Feb-18 17:33N 34°04' E 134°48'  
2016-Feb-16 10:10N 35°07' E 139°43'914.9
2016-Feb-16 09:33N 35°15' E 139°46'1211.9
2016-Feb-16 08:33N 35°27' E 139°48'1616.3
2016-Feb-16 07:33N 35°36' E 140°05'1 1.0
2016-Feb-16 06:31N 35°36' E 140°06'0 0.0
2016-Feb-16 05:33N 35°36' E 140°06'1 1.3
2016-Feb-16 04:33N 35°37' E 140°05'0 0.0
2016-Feb-16 03:33N 35°37' E 140°05'0 0.0
2016-Feb-16 02:33N 35°37' E 140°05'0 0.0
2016-Feb-16 01:33N 35°37' E 140°05'0 0.0
2016-Feb-16 00:33N 35°37' E 140°05'0 0.0
2016-Feb-15 23:33N 35°37' E 140°05'0 0.0
2016-Feb-15 22:27N 35°37' E 140°05'0 0.0
2016-Feb-15 21:27N 35°37' E 140°05'0 0.0
2016-Feb-15 20:33N 35°37' E 140°05'0 0.0
2016-Feb-15 19:33N 35°37' E 140°05'0 0.0
2016-Feb-15 18:33N 35°37' E 140°05'0 0.0
2016-Feb-15 17:27N 35°37' E 140°05'0 0.0
2016-Feb-15 16:27N 35°37' E 140°05'0 0.0
2016-Feb-15 15:33N 35°37' E 140°05'0 0.0
2016-Feb-15 14:33N 35°37' E 140°05'0 0.0
2016-Feb-15 13:12N 35°37' E 140°05'1 1.8
2016-Feb-15 12:34N 35°36' E 140°05'1615.9
2016-Feb-15 11:33N 35°26' E 139°49'1211.6
2016-Feb-15 10:33N 35°15' E 139°47'  

Dump ship's entire track history